sensor_id;sensor_type;location;lat;lon;timestamp;pressure;altitude;pressure_sealevel;temperature;humidity
52957;BME280;38819;42.692;23.342;2023-05-08T00:01:45;95447.03;;;16.40;52.87
52957;BME280;38819;42.692;23.342;2023-05-08T00:04:11;95439.03;;;16.35;52.70
52957;BME280;38819;42.692;23.342;2023-05-08T00:06:37;95455.19;;;16.40;52.77
52957;BME280;38819;42.692;23.342;2023-05-08T00:09:02;95452.00;;;16.38;52.67
52957;BME280;38819;42.692;23.342;2023-05-08T00:11:28;95447.84;;;16.41;52.64
52957;BME280;38819;42.692;23.342;2023-05-08T00:13:53;95451.84;;;16.35;52.86
52957;BME280;38819;42.692;23.342;2023-05-08T00:16:19;95444.31;;;16.32;52.68
52957;BME280;38819;42.692;23.342;2023-05-08T00:18:44;95451.84;;;16.35;52.78
52957;BME280;38819;42.692;23.342;2023-05-08T00:21:10;95455.69;;;16.34;53.10
52957;BME280;38819;42.692;23.342;2023-05-08T00:23:36;95452.34;;;16.28;53.22
52957;BME280;38819;42.692;23.342;2023-05-08T00:26:01;95453.78;;;16.25;53.28
52957;BME280;38819;42.692;23.342;2023-05-08T00:28:27;95457.50;;;16.21;53.49
52957;BME280;38819;42.692;23.342;2023-05-08T00:30:52;95455.09;;;16.19;53.80
52957;BME280;38819;42.692;23.342;2023-05-08T00:33:18;95460.72;;;16.14;53.77
52957;BME280;38819;42.692;23.342;2023-05-08T00:35:43;95458.78;;;16.15;53.76
52957;BME280;38819;42.692;23.342;2023-05-08T00:38:09;95465.66;;;16.12;53.99
52957;BME280;38819;42.692;23.342;2023-05-08T00:40:35;95457.84;;;16.10;54.18
52957;BME280;38819;42.692;23.342;2023-05-08T00:43:01;95456.38;;;16.04;54.38
52957;BME280;38819;42.692;23.342;2023-05-08T00:45:31;95467.59;;;16.03;54.35
52957;BME280;38819;42.692;23.342;2023-05-08T00:47:58;95457.34;;;16.00;54.67
52957;BME280;38819;42.692;23.342;2023-05-08T00:50:24;95464.38;;;15.92;54.93
52957;BME280;38819;42.692;23.342;2023-05-08T00:52:50;95468.09;;;15.87;55.00
52957;BME280;38819;42.692;23.342;2023-05-08T00:55:16;95461.66;;;15.83;55.10
52957;BME280;38819;42.692;23.342;2023-05-08T00:57:42;95470.47;;;15.80;55.66
52957;BME280;38819;42.692;23.342;2023-05-08T01:00:11;95467.75;;;15.80;55.71
52957;BME280;38819;42.692;23.342;2023-05-08T01:02:38;95466.16;;;15.79;55.80
52957;BME280;38819;42.692;23.342;2023-05-08T01:05:05;95467.25;;;15.78;55.87
52957;BME280;38819;42.692;23.342;2023-05-08T01:07:31;95466.75;;;15.67;55.86
52957;BME280;38819;42.692;23.342;2023-05-08T01:09:57;95474.44;;;15.65;55.88
52957;BME280;38819;42.692;23.342;2023-05-08T01:12:30;95478.13;;;15.61;56.11
52957;BME280;38819;42.692;23.342;2023-05-08T01:15:11;95473.78;;;15.60;56.58
52957;BME280;38819;42.692;23.342;2023-05-08T01:17:49;95478.75;;;15.49;57.28
52957;BME280;38819;42.692;23.342;2023-05-08T01:20:25;95474.88;;;15.41;57.52
52957;BME280;38819;42.692;23.342;2023-05-08T01:34:30;95461.19;;;15.15;58.36
52957;BME280;38819;42.692;23.342;2023-05-08T01:37:07;95466.00;;;15.18;58.20
52957;BME280;38819;42.692;23.342;2023-05-08T01:39:52;95467.59;;;15.10;57.72
52957;BME280;38819;42.692;23.342;2023-05-08T01:45:38;95463.09;;;15.06;57.60
52957;BME280;38819;42.692;23.342;2023-05-08T01:48:09;95461.63;;;14.99;58.14
52957;BME280;38819;42.692;23.342;2023-05-08T01:50:41;95455.72;;;15.06;58.04
52957;BME280;38819;42.692;23.342;2023-05-08T01:53:21;95457.38;;;15.16;58.26
52957;BME280;38819;42.692;23.342;2023-05-08T01:55:49;95449.81;;;15.04;58.71
52957;BME280;38819;42.692;23.342;2023-05-08T01:58:16;95456.88;;;15.05;58.99
52957;BME280;38819;42.692;23.342;2023-05-08T02:00:43;95457.31;;;14.98;58.96
52957;BME280;38819;42.692;23.342;2023-05-08T02:03:10;95464.81;;;15.01;59.03
52957;BME280;38819;42.692;23.342;2023-05-08T02:05:39;95456.34;;;15.03;58.69
52957;BME280;38819;42.692;23.342;2023-05-08T02:08:07;95463.06;;;14.97;59.18
52957;BME280;38819;42.692;23.342;2023-05-08T02:10:33;95465.47;;;14.98;58.91
52957;BME280;38819;42.692;23.342;2023-05-08T02:13:00;95459.66;;;14.91;58.99
52957;BME280;38819;42.692;23.342;2023-05-08T02:15:27;95458.25;;;14.94;59.05
52957;BME280;38819;42.692;23.342;2023-05-08T02:17:55;95461.78;;;14.94;59.39
52957;BME280;38819;42.692;23.342;2023-05-08T02:20:21;95470.38;;;14.88;59.09
52957;BME280;38819;42.692;23.342;2023-05-08T02:22:49;95466.50;;;14.80;59.08
52957;BME280;38819;42.692;23.342;2023-05-08T02:25:16;95465.25;;;14.86;59.28
52957;BME280;38819;42.692;23.342;2023-05-08T02:27:44;95470.84;;;14.81;59.99
52957;BME280;38819;42.692;23.342;2023-05-08T02:30:14;95470.97;;;14.76;60.43
52957;BME280;38819;42.692;23.342;2023-05-08T02:32:44;95466.91;;;14.64;60.87
52957;BME280;38819;42.692;23.342;2023-05-08T02:35:13;95465.88;;;14.52;61.63
52957;BME280;38819;42.692;23.342;2023-05-08T02:37:41;95475.13;;;14.51;61.72
52957;BME280;38819;42.692;23.342;2023-05-08T02:40:09;95468.25;;;14.53;61.53
52957;BME280;38819;42.692;23.342;2023-05-08T02:42:36;95478.19;;;14.58;61.34
52957;BME280;38819;42.692;23.342;2023-05-08T02:45:02;95476.84;;;14.46;61.61
52957;BME280;38819;42.692;23.342;2023-05-08T02:47:36;95470.41;;;14.34;62.46
52957;BME280;38819;42.692;23.342;2023-05-08T02:50:44;95479.91;;;14.45;62.16
52957;BME280;38819;42.692;23.342;2023-05-08T02:56:11;95487.22;;;14.44;62.09
52957;BME280;38819;42.692;23.342;2023-05-08T02:58:49;95480.56;;;14.51;62.18
52957;BME280;38819;42.692;23.342;2023-05-08T03:01:26;95482.41;;;14.41;62.63
52957;BME280;38819;42.692;23.342;2023-05-08T03:04:35;95479.06;;;14.44;62.65
52957;BME280;38819;42.692;23.342;2023-05-08T03:07:00;95479.22;;;14.39;63.01
52957;BME280;38819;42.692;23.342;2023-05-08T03:09:33;95479.38;;;14.43;63.00
52957;BME280;38819;42.692;23.342;2023-05-08T03:12:05;95480.56;;;14.28;63.42
52957;BME280;38819;42.692;23.342;2023-05-08T03:14:36;95475.88;;;14.20;63.51
52957;BME280;38819;42.692;23.342;2023-05-08T03:17:07;95476.50;;;14.17;63.10
52957;BME280;38819;42.692;23.342;2023-05-08T03:19:37;95483.53;;;14.18;62.30
52957;BME280;38819;42.692;23.342;2023-05-08T03:22:04;95492.50;;;14.18;62.93
52957;BME280;38819;42.692;23.342;2023-05-08T03:24:33;95493.34;;;14.27;62.64
52957;BME280;38819;42.692;23.342;2023-05-08T03:27:02;95494.59;;;14.21;62.08
52957;BME280;38819;42.692;23.342;2023-05-08T03:29:28;95485.63;;;14.21;62.07
52957;BME280;38819;42.692;23.342;2023-05-08T03:31:56;95491.13;;;14.30;62.13
52957;BME280;38819;42.692;23.342;2023-05-08T03:34:23;95493.47;;;14.22;62.47
52957;BME280;38819;42.692;23.342;2023-05-08T03:36:50;95498.91;;;14.22;62.34
52957;BME280;38819;42.692;23.342;2023-05-08T03:39:16;95501.69;;;14.31;62.23
52957;BME280;38819;42.692;23.342;2023-05-08T03:41:42;95492.25;;;14.29;63.07
52957;BME280;38819;42.692;23.342;2023-05-08T03:44:07;95489.22;;;14.30;62.66
52957;BME280;38819;42.692;23.342;2023-05-08T03:46:34;95490.22;;;14.34;62.49
52957;BME280;38819;42.692;23.342;2023-05-08T03:49:03;95500.94;;;14.39;62.54
52957;BME280;38819;42.692;23.342;2023-05-08T03:51:28;95487.38;;;14.39;61.92
52957;BME280;38819;42.692;23.342;2023-05-08T03:53:55;95488.91;;;14.54;61.44
52957;BME280;38819;42.692;23.342;2023-05-08T03:56:20;95499.66;;;14.59;61.33
52957;BME280;38819;42.692;23.342;2023-05-08T03:59:12;95493.44;;;14.59;61.19
52957;BME280;38819;42.692;23.342;2023-05-08T04:01:38;95503.38;;;14.63;60.77
52957;BME280;38819;42.692;23.342;2023-05-08T04:04:41;95504.03;;;14.69;60.57
52957;BME280;38819;42.692;23.342;2023-05-08T04:09:54;95496.41;;;14.80;59.88
52957;BME280;38819;42.692;23.342;2023-05-08T04:15:13;95504.97;;;14.96;59.86
52957;BME280;38819;42.692;23.342;2023-05-08T04:17:44;95510.72;;;14.94;59.56
52957;BME280;38819;42.692;23.342;2023-05-08T04:20:19;95513.13;;;14.96;59.59
52957;BME280;38819;42.692;23.342;2023-05-08T04:22:46;95517.63;;;15.00;59.96
52957;BME280;38819;42.692;23.342;2023-05-08T04:25:15;95523.41;;;15.08;60.04
52957;BME280;38819;42.692;23.342;2023-05-08T04:27:42;95520.41;;;15.09;59.98
52957;BME280;38819;42.692;23.342;2023-05-08T04:30:09;95519.66;;;15.26;59.10
52957;BME280;38819;42.692;23.342;2023-05-08T04:32:36;95510.53;;;15.22;58.11
52957;BME280;38819;42.692;23.342;2023-05-08T04:35:03;95514.00;;;15.14;57.94
52957;BME280;38819;42.692;23.342;2023-05-08T04:37:29;95512.75;;;15.20;58.08
52957;BME280;38819;42.692;23.342;2023-05-08T04:39:58;95520.59;;;15.22;58.16
52957;BME280;38819;42.692;23.342;2023-05-08T04:42:24;95506.81;;;15.18;58.56
52957;BME280;38819;42.692;23.342;2023-05-08T04:44:51;95504.94;;;15.27;58.52
52957;BME280;38819;42.692;23.342;2023-05-08T04:47:16;95505.59;;;15.33;58.21
52957;BME280;38819;42.692;23.342;2023-05-08T04:49:42;95501.09;;;15.28;58.24
52957;BME280;38819;42.692;23.342;2023-05-08T04:52:07;95494.69;;;15.24;58.39
52957;BME280;38819;42.692;23.342;2023-05-08T04:54:33;95505.59;;;15.42;58.37
52957;BME280;38819;42.692;23.342;2023-05-08T04:56:59;95500.00;;;15.47;58.17
52957;BME280;38819;42.692;23.342;2023-05-08T04:59:24;95503.88;;;15.54;57.80
52957;BME280;38819;42.692;23.342;2023-05-08T05:01:50;95502.31;;;15.62;57.97
52957;BME280;38819;42.692;23.342;2023-05-08T05:04:16;95504.13;;;15.76;57.31
52957;BME280;38819;42.692;23.342;2023-05-08T05:06:41;95497.38;;;15.82;56.80
52957;BME280;38819;42.692;23.342;2023-05-08T05:09:07;95502.81;;;15.82;56.71
52957;BME280;38819;42.692;23.342;2023-05-08T05:11:33;95486.31;;;15.87;56.82
52957;BME280;38819;42.692;23.342;2023-05-08T05:13:58;95493.06;;;15.89;56.86
52957;BME280;38819;42.692;23.342;2023-05-08T05:16:24;95495.47;;;15.91;56.46
52957;BME280;38819;42.692;23.342;2023-05-08T05:18:49;95490.97;;;15.78;57.52
52957;BME280;38819;42.692;23.342;2023-05-08T05:21:14;95487.72;;;15.67;57.76
52957;BME280;38819;42.692;23.342;2023-05-08T05:23:40;95490.63;;;15.70;57.67
52957;BME280;38819;42.692;23.342;2023-05-08T05:26:06;95489.16;;;15.64;58.06
52957;BME280;38819;42.692;23.342;2023-05-08T05:28:31;95493.16;;;15.67;57.73
52957;BME280;38819;42.692;23.342;2023-05-08T05:30:57;95494.63;;;15.73;57.71
52957;BME280;38819;42.692;23.342;2023-05-08T05:33:22;95486.94;;;15.75;57.67
52957;BME280;38819;42.692;23.342;2023-05-08T05:35:48;95494.50;;;15.87;57.41
52957;BME280;38819;42.692;23.342;2023-05-08T05:38:13;95503.00;;;15.94;57.43
52957;BME280;38819;42.692;23.342;2023-05-08T05:40:39;95495.97;;;15.93;57.30
52957;BME280;38819;42.692;23.342;2023-05-08T05:43:04;95491.81;;;15.96;56.97
52957;BME280;38819;42.692;23.342;2023-05-08T05:45:30;95494.84;;;15.94;56.90
52957;BME280;38819;42.692;23.342;2023-05-08T05:47:56;95490.53;;;16.10;56.35
52957;BME280;38819;42.692;23.342;2023-05-08T05:50:21;95486.03;;;15.97;56.44
52957;BME280;38819;42.692;23.342;2023-05-08T05:52:47;95487.94;;;16.14;56.21
52957;BME280;38819;42.692;23.342;2023-05-08T05:55:12;95490.84;;;16.18;55.76
52957;BME280;38819;42.692;23.342;2023-05-08T05:57:38;95488.09;;;16.26;55.84
52957;BME280;38819;42.692;23.342;2023-05-08T06:00:05;95485.84;;;16.37;55.55
52957;BME280;38819;42.692;23.342;2023-05-08T06:02:31;95481.97;;;16.47;55.47
52957;BME280;38819;42.692;23.342;2023-05-08T06:04:58;95480.34;;;16.63;55.36
52957;BME280;38819;42.692;23.342;2023-05-08T06:07:24;95477.94;;;16.62;55.08
52957;BME280;38819;42.692;23.342;2023-05-08T06:09:49;95476.97;;;16.66;54.65
52957;BME280;38819;42.692;23.342;2023-05-08T06:12:15;95469.41;;;16.72;54.93
52957;BME280;38819;42.692;23.342;2023-05-08T06:14:42;95471.16;;;16.85;54.76
52957;BME280;38819;42.692;23.342;2023-05-08T06:17:11;95471.16;;;16.85;54.25
52957;BME280;38819;42.692;23.342;2023-05-08T06:19:39;95470.19;;;16.81;54.36
52957;BME280;38819;42.692;23.342;2023-05-08T06:22:04;95472.91;;;16.81;54.63
52957;BME280;38819;42.692;23.342;2023-05-08T06:24:30;95480.81;;;16.74;54.77
52957;BME280;38819;42.692;23.342;2023-05-08T06:26:55;95473.38;;;16.83;54.30
52957;BME280;38819;42.692;23.342;2023-05-08T06:29:21;95469.25;;;16.77;54.63
52957;BME280;38819;42.692;23.342;2023-05-08T06:31:46;95472.28;;;16.84;54.45
52957;BME280;38819;42.692;23.342;2023-05-08T06:34:12;95471.63;;;16.79;54.64
52957;BME280;38819;42.692;23.342;2023-05-08T06:36:37;95468.59;;;16.89;54.06
52957;BME280;38819;42.692;23.342;2023-05-08T06:39:04;95467.75;;;16.97;53.85
52957;BME280;38819;42.692;23.342;2023-05-08T06:41:30;95483.78;;;17.08;53.75
52957;BME280;38819;42.692;23.342;2023-05-08T06:43:55;95470.88;;;17.17;53.63
52957;BME280;38819;42.692;23.342;2023-05-08T06:46:21;95473.91;;;17.24;53.40
52957;BME280;38819;42.692;23.342;2023-05-08T06:48:46;95472.28;;;17.23;53.25
52957;BME280;38819;42.692;23.342;2023-05-08T06:51:11;95479.06;;;17.17;53.96
52957;BME280;38819;42.692;23.342;2023-05-08T06:53:37;95468.78;;;17.14;54.02
52957;BME280;38819;42.692;23.342;2023-05-08T06:56:02;95471.84;;;17.12;53.92
52957;BME280;38819;42.692;23.342;2023-05-08T06:58:28;95473.78;;;17.12;53.64
52957;BME280;38819;42.692;23.342;2023-05-08T07:00:55;95470.06;;;17.16;53.68
52957;BME280;38819;42.692;23.342;2023-05-08T07:03:21;95474.25;;;17.14;53.56
52957;BME280;38819;42.692;23.342;2023-05-08T07:05:48;95487.69;;;17.28;53.54
52957;BME280;38819;42.692;23.342;2023-05-08T07:08:14;95483.50;;;17.30;53.15
52957;BME280;38819;42.692;23.342;2023-05-08T07:10:39;95479.59;;;17.40;53.08
52957;BME280;38819;42.692;23.342;2023-05-08T07:13:05;95480.16;;;17.25;53.40
52957;BME280;38819;42.692;23.342;2023-05-08T07:15:31;95483.44;;;17.39;52.89
52957;BME280;38819;42.692;23.342;2023-05-08T07:17:56;95476.81;;;17.49;52.85
52957;BME280;38819;42.692;23.342;2023-05-08T07:20:21;95484.91;;;17.36;53.21
52957;BME280;38819;42.692;23.342;2023-05-08T07:22:48;95482.19;;;17.36;53.62
52957;BME280;38819;42.692;23.342;2023-05-08T07:25:14;95480.34;;;17.19;53.70
52957;BME280;38819;42.692;23.342;2023-05-08T07:27:40;95483.72;;;17.16;53.15
52957;BME280;38819;42.692;23.342;2023-05-08T07:30:07;95475.13;;;16.97;53.93
52957;BME280;38819;42.692;23.342;2023-05-08T07:32:32;95478.31;;;17.08;53.82
52957;BME280;38819;42.692;23.342;2023-05-08T07:34:58;95480.34;;;17.19;53.47
52957;BME280;38819;42.692;23.342;2023-05-08T07:37:23;95481.91;;;17.29;53.05
52957;BME280;38819;42.692;23.342;2023-05-08T07:39:49;95471.00;;;17.20;53.29
52957;BME280;38819;42.692;23.342;2023-05-08T07:42:14;95478.53;;;17.23;53.74
52957;BME280;38819;42.692;23.342;2023-05-08T07:44:42;95480.25;;;17.37;53.42
52957;BME280;38819;42.692;23.342;2023-05-08T07:47:08;95488.53;;;17.49;53.00
52957;BME280;38819;42.692;23.342;2023-05-08T07:49:33;95479.16;;;17.59;52.83
52957;BME280;38819;42.692;23.342;2023-05-08T07:51:58;95487.63;;;17.66;52.08
52957;BME280;38819;42.692;23.342;2023-05-08T07:54:24;95489.41;;;17.62;52.06
52957;BME280;38819;42.692;23.342;2023-05-08T07:56:49;95483.63;;;17.64;51.91
52957;BME280;38819;42.692;23.342;2023-05-08T07:59:15;95486.59;;;17.80;51.20
52957;BME280;38819;42.692;23.342;2023-05-08T08:01:40;95481.97;;;17.71;51.84
52957;BME280;38819;42.692;23.342;2023-05-08T08:04:11;95485.59;;;17.84;51.70
52957;BME280;38819;42.692;23.342;2023-05-08T08:06:36;95483.03;;;17.88;52.08
52957;BME280;38819;42.692;23.342;2023-05-08T08:09:02;95480.22;;;17.96;51.92
52957;BME280;38819;42.692;23.342;2023-05-08T08:11:27;95479.53;;;18.21;51.59
52957;BME280;38819;42.692;23.342;2023-05-08T08:13:53;95481.13;;;18.22;52.13
52957;BME280;38819;42.692;23.342;2023-05-08T08:16:18;95480.41;;;18.46;51.75
52957;BME280;38819;42.692;23.342;2023-05-08T08:18:44;95492.41;;;18.41;51.82
52957;BME280;38819;42.692;23.342;2023-05-08T08:21:09;95484.97;;;18.42;51.96
52957;BME280;38819;42.692;23.342;2023-05-08T08:23:35;95483.88;;;18.55;51.74
52957;BME280;38819;42.692;23.342;2023-05-08T08:26:00;95482.53;;;18.61;52.09
52957;BME280;38819;42.692;23.342;2023-05-08T08:28:26;95478.19;;;18.60;52.08
52957;BME280;38819;42.692;23.342;2023-05-08T08:30:51;95475.81;;;18.59;51.97
52957;BME280;38819;42.692;23.342;2023-05-08T08:33:16;95474.38;;;18.74;51.73
52957;BME280;38819;42.692;23.342;2023-05-08T08:35:42;95472.38;;;18.83;51.88
52957;BME280;38819;42.692;23.342;2023-05-08T08:38:07;95473.94;;;18.84;51.52
52957;BME280;38819;42.692;23.342;2023-05-08T08:40:38;95461.31;;;18.92;51.70
52957;BME280;38819;42.692;23.342;2023-05-08T08:43:03;95457.91;;;18.95;51.90
52957;BME280;38819;42.692;23.342;2023-05-08T08:45:29;95452.66;;;19.14;51.35
52957;BME280;38819;42.692;23.342;2023-05-08T08:48:00;95450.28;;;19.25;51.25
52957;BME280;38819;42.692;23.342;2023-05-08T08:50:29;95455.84;;;19.04;51.89
52957;BME280;38819;42.692;23.342;2023-05-08T08:55:39;95448.88;;;18.94;52.13
52957;BME280;38819;42.692;23.342;2023-05-08T09:00:40;95433.88;;;18.79;52.82
52957;BME280;38819;42.692;23.342;2023-05-08T09:03:06;95434.38;;;18.81;52.66
52957;BME280;38819;42.692;23.342;2023-05-08T09:05:32;95434.00;;;18.70;53.23
52957;BME280;38819;42.692;23.342;2023-05-08T09:07:58;95424.03;;;18.87;52.90
52957;BME280;38819;42.692;23.342;2023-05-08T09:10:23;95421.72;;;18.89;52.84
52957;BME280;38819;42.692;23.342;2023-05-08T09:12:49;95418.53;;;18.87;52.88
52957;BME280;38819;42.692;23.342;2023-05-08T09:15:14;95416.00;;;18.82;53.30
52957;BME280;38819;42.692;23.342;2023-05-08T09:17:40;95412.63;;;18.85;53.18
52957;BME280;38819;42.692;23.342;2023-05-08T09:20:06;95410.13;;;18.92;53.23
52957;BME280;38819;42.692;23.342;2023-05-08T09:22:35;95399.50;;;18.91;53.11
52957;BME280;38819;42.692;23.342;2023-05-08T09:25:00;95401.00;;;18.88;53.57
52957;BME280;38819;42.692;23.342;2023-05-08T09:27:29;95393.25;;;18.90;53.45
52957;BME280;38819;42.692;23.342;2023-05-08T09:30:03;95398.47;;;18.95;53.96
52957;BME280;38819;42.692;23.342;2023-05-08T09:32:30;95397.91;;;19.02;53.38
52957;BME280;38819;42.692;23.342;2023-05-08T09:34:56;95397.69;;;18.95;53.80
52957;BME280;38819;42.692;23.342;2023-05-08T09:37:22;95386.41;;;18.96;53.56
52957;BME280;38819;42.692;23.342;2023-05-08T09:39:48;95411.72;;;18.93;54.15
52957;BME280;38819;42.692;23.342;2023-05-08T09:42:14;95412.72;;;19.01;53.71
52957;BME280;38819;42.692;23.342;2023-05-08T09:44:46;95422.66;;;18.93;54.01
52957;BME280;38819;42.692;23.342;2023-05-08T09:47:23;95418.44;;;18.96;54.39
52957;BME280;38819;42.692;23.342;2023-05-08T09:52:31;95421.75;;;19.01;54.13
52957;BME280;38819;42.692;23.342;2023-05-08T09:54:58;95421.97;;;19.09;53.83
52957;BME280;38819;42.692;23.342;2023-05-08T09:57:28;95410.91;;;19.05;53.86
52957;BME280;38819;42.692;23.342;2023-05-08T10:00:06;95414.78;;;19.04;53.86
52957;BME280;38819;42.692;23.342;2023-05-08T10:02:34;95402.69;;;19.17;53.79
52957;BME280;38819;42.692;23.342;2023-05-08T10:05:00;95404.97;;;19.40;53.42
52957;BME280;38819;42.692;23.342;2023-05-08T10:07:33;95396.06;;;19.43;53.57
52957;BME280;38819;42.692;23.342;2023-05-08T10:10:03;95410.53;;;19.56;53.05
52957;BME280;38819;42.692;23.342;2023-05-08T10:12:29;95395.84;;;19.48;53.38
52957;BME280;38819;42.692;23.342;2023-05-08T10:14:55;95395.94;;;19.52;53.48
52957;BME280;38819;42.692;23.342;2023-05-08T10:17:35;95394.75;;;19.65;53.30
52957;BME280;38819;42.692;23.342;2023-05-08T10:20:05;95394.53;;;19.70;52.98
52957;BME280;38819;42.692;23.342;2023-05-08T10:22:35;95403.91;;;19.57;53.23
52957;BME280;38819;42.692;23.342;2023-05-08T10:25:01;95389.28;;;19.53;53.80
52957;BME280;38819;42.692;23.342;2023-05-08T10:27:34;95390.06;;;19.66;53.47
52957;BME280;38819;42.692;23.342;2023-05-08T10:30:03;95383.69;;;19.61;53.66
52957;BME280;38819;42.692;23.342;2023-05-08T10:32:36;95387.78;;;19.68;53.38
52957;BME280;38819;42.692;23.342;2023-05-08T10:35:04;95378.41;;;19.81;53.45
52957;BME280;38819;42.692;23.342;2023-05-08T10:37:33;95377.16;;;19.78;53.70
52957;BME280;38819;42.692;23.342;2023-05-08T10:40:01;95382.50;;;19.87;53.25
52957;BME280;38819;42.692;23.342;2023-05-08T10:42:27;95380.44;;;19.84;53.01
52957;BME280;38819;42.692;23.342;2023-05-08T10:44:53;95374.88;;;19.80;54.14
52957;BME280;38819;42.692;23.342;2023-05-08T10:53:12;95368.59;;;20.08;52.00
52957;BME280;38819;42.692;23.342;2023-05-08T10:55:41;95368.00;;;20.15;52.27
52957;BME280;38819;42.692;23.342;2023-05-08T10:58:36;95367.84;;;20.24;51.80
52957;BME280;38819;42.692;23.342;2023-05-08T11:03:38;95354.47;;;20.22;52.38
52957;BME280;38819;42.692;23.342;2023-05-08T11:06:03;95362.78;;;20.26;50.96
52957;BME280;38819;42.692;23.342;2023-05-08T11:08:30;95357.47;;;20.17;51.76
52957;BME280;38819;42.692;23.342;2023-05-08T11:13:36;95346.38;;;20.42;50.21
52957;BME280;38819;42.692;23.342;2023-05-08T11:16:02;95335.06;;;20.43;50.50
52957;BME280;38819;42.692;23.342;2023-05-08T11:18:28;95330.88;;;20.49;50.18
52957;BME280;38819;42.692;23.342;2023-05-08T11:20:55;95323.59;;;20.41;50.23
52957;BME280;38819;42.692;23.342;2023-05-08T11:26:01;95327.59;;;20.44;49.80
52957;BME280;38819;42.692;23.342;2023-05-08T11:28:28;95317.41;;;20.44;48.71
52957;BME280;38819;42.692;23.342;2023-05-08T11:30:55;95312.28;;;20.43;48.87
52957;BME280;38819;42.692;23.342;2023-05-08T11:33:21;95304.78;;;20.55;48.74
52957;BME280;38819;42.692;23.342;2023-05-08T11:35:55;95303.47;;;20.65;48.50
52957;BME280;38819;42.692;23.342;2023-05-08T11:38:29;95300.47;;;20.70;48.39
52957;BME280;38819;42.692;23.342;2023-05-08T11:41:18;95304.78;;;20.87;47.97
52957;BME280;38819;42.692;23.342;2023-05-08T11:46:15;95285.06;;;21.01;47.67
52957;BME280;38819;42.692;23.342;2023-05-08T11:48:41;95271.25;;;21.14;47.75
52957;BME280;38819;42.692;23.342;2023-05-08T11:51:07;95281.22;;;21.22;46.87
52957;BME280;38819;42.692;23.342;2023-05-08T11:53:34;95272.78;;;21.31;46.17
52957;BME280;38819;42.692;23.342;2023-05-08T11:56:01;95270.31;;;21.25;46.41
52957;BME280;38819;42.692;23.342;2023-05-08T11:58:27;95261.44;;;21.32;46.20
52957;BME280;38819;42.692;23.342;2023-05-08T12:00:53;95259.47;;;21.33;44.99
52957;BME280;38819;42.692;23.342;2023-05-08T12:03:23;95259.03;;;21.31;45.81
52957;BME280;38819;42.692;23.342;2023-05-08T12:05:55;95273.81;;;21.42;46.08
52957;BME280;38819;42.692;23.342;2023-05-08T12:08:21;95255.88;;;21.48;45.95
52957;BME280;38819;42.692;23.342;2023-05-08T12:10:55;95255.22;;;21.55;45.80
52957;BME280;38819;42.692;23.342;2023-05-08T12:13:28;95257.31;;;21.61;45.62
52957;BME280;38819;42.692;23.342;2023-05-08T12:15:58;95253.56;;;21.70;45.46
52957;BME280;38819;42.692;23.342;2023-05-08T12:18:25;95252.78;;;21.69;45.75
52957;BME280;38819;42.692;23.342;2023-05-08T12:21:00;95250.22;;;21.80;45.52
52957;BME280;38819;42.692;23.342;2023-05-08T12:23:27;95249.34;;;21.95;44.62
52957;BME280;38819;42.692;23.342;2023-05-08T12:25:54;95241.56;;;22.01;44.30
52957;BME280;38819;42.692;23.342;2023-05-08T12:28:22;95252.69;;;22.08;44.42
52957;BME280;38819;42.692;23.342;2023-05-08T12:30:48;95245.13;;;22.01;44.47
52957;BME280;38819;42.692;23.342;2023-05-08T12:33:14;95246.28;;;22.00;44.60
52957;BME280;38819;42.692;23.342;2023-05-08T12:35:40;95238.53;;;22.06;44.64
52957;BME280;38819;42.692;23.342;2023-05-08T12:38:07;95227.88;;;22.05;44.20
52957;BME280;38819;42.692;23.342;2023-05-08T12:40:34;95226.50;;;22.14;44.32
52957;BME280;38819;42.692;23.342;2023-05-08T12:43:01;95241.34;;;22.10;44.57
52957;BME280;38819;42.692;23.342;2023-05-08T12:45:29;95239.44;;;22.14;44.42
52957;BME280;38819;42.692;23.342;2023-05-08T12:48:00;95231.19;;;22.14;44.64
52957;BME280;38819;42.692;23.342;2023-05-08T12:50:26;95225.69;;;22.14;44.66
52957;BME280;38819;42.692;23.342;2023-05-08T12:52:52;95230.69;;;22.08;44.60
52957;BME280;38819;42.692;23.342;2023-05-08T12:55:28;95225.69;;;21.91;44.20
52957;BME280;38819;42.692;23.342;2023-05-08T12:58:09;95232.03;;;21.95;44.21
52957;BME280;38819;42.692;23.342;2023-05-08T13:00:37;95228.38;;;21.87;44.20
52957;BME280;38819;42.692;23.342;2023-05-08T13:03:04;95248.66;;;21.59;47.49
52957;BME280;38819;42.692;23.342;2023-05-08T13:05:30;95223.19;;;21.23;50.88
52957;BME280;38819;42.692;23.342;2023-05-08T13:08:00;95237.41;;;20.74;53.25
52957;BME280;38819;42.692;23.342;2023-05-08T13:10:25;95250.78;;;20.28;54.74
52957;BME280;38819;42.692;23.342;2023-05-08T13:13:06;95256.09;;;20.05;55.43
52957;BME280;38819;42.692;23.342;2023-05-08T13:15:32;95252.97;;;19.90;55.70
52957;BME280;38819;42.692;23.342;2023-05-08T13:17:57;95263.41;;;19.85;55.80
52957;BME280;38819;42.692;23.342;2023-05-08T13:20:23;95254.00;;;19.70;56.08
52957;BME280;38819;42.692;23.342;2023-05-08T13:22:48;95284.47;;;19.68;56.48
52957;BME280;38819;42.692;23.342;2023-05-08T13:25:14;95261.72;;;19.68;55.98
52957;BME280;38819;42.692;23.342;2023-05-08T13:27:39;95284.22;;;19.45;56.65
52957;BME280;38819;42.692;23.342;2023-05-08T13:30:05;95268.72;;;19.37;56.86
52957;BME280;38819;42.692;23.342;2023-05-08T13:32:31;95283.50;;;19.20;57.49
52957;BME280;38819;42.692;23.342;2023-05-08T13:34:56;95287.88;;;18.96;58.38
52957;BME280;38819;42.692;23.342;2023-05-08T13:37:22;95274.53;;;18.95;58.97
52957;BME280;38819;42.692;23.342;2023-05-08T13:39:47;95285.25;;;18.87;59.50
52957;BME280;38819;42.692;23.342;2023-05-08T13:42:13;95292.66;;;18.87;59.68